createdAt,value
2019-06-07T00:09:27.557Z,97492.43
2019-06-07T00:19:28.724Z,97479.25
2019-06-07T00:29:29.889Z,97469.68
2019-06-07T00:39:31.115Z,97464.41
2019-06-07T00:49:52.119Z,97450.67
2019-06-07T00:59:53.547Z,97436.69
2019-06-07T01:09:54.702Z,97428.02
2019-06-07T01:19:55.736Z,97426.16
2019-06-07T01:29:57.977Z,97415.92
2019-06-07T01:39:59.141Z,97403.47
2019-06-07T01:50:00.317Z,97400.61
2019-06-07T02:00:14.661Z,97395.37
2019-06-07T02:10:16.503Z,97395.89
2019-06-07T02:20:17.754Z,97398.07
2019-06-07T02:40:24.545Z,97386.14
2019-06-07T02:50:29.193Z,97383.27
2019-06-07T03:01:00.615Z,97380.60
2019-06-07T03:10:48.292Z,97375.34
2019-06-07T03:21:04.673Z,97368.73
2019-06-07T03:31:02.210Z,97375.86
2019-06-07T03:40:56.949Z,97381.94
2019-06-07T03:51:04.634Z,97389.08
2019-06-07T04:01:02.201Z,97390.64
2019-06-07T04:11:03.432Z,97388.99
2019-06-07T04:21:04.450Z,97392.82
2019-06-07T04:31:05.578Z,97401.23
2019-06-07T04:41:07.109Z,97399.97
2019-06-07T04:51:11.266Z,97398.91
2019-06-07T05:01:26.913Z,97396.56
2019-06-07T05:11:15.634Z,97397.64
2019-06-07T05:21:16.699Z,97388.79
2019-06-07T05:31:17.837Z,97381.38
2019-06-07T05:41:18.960Z,97389.73
2019-06-07T05:51:20.038Z,97366.03
2019-06-07T06:11:43.328Z,97316.20
2019-06-07T06:21:29.417Z,97318.58
2019-06-07T06:31:31.493Z,97312.70
2019-06-07T06:41:48.479Z,97303.66
2019-06-07T06:51:36.044Z,97277.31
2019-06-07T07:01:37.128Z,97270.52
2019-06-07T07:11:52.358Z,97263.99
2019-06-07T07:21:42.052Z,97256.31
2019-06-07T07:31:43.188Z,97247.38
2019-06-07T07:42:04.485Z,97221.84
2019-06-07T07:51:49.052Z,97212.27
2019-06-07T08:01:53.069Z,97191.52
2019-06-07T08:12:00.084Z,97176.13
2019-06-07T08:21:56.597Z,97157.25
2019-06-07T08:31:58.688Z,97146.26
2019-06-07T08:42:15.175Z,97125.70
2019-06-07T08:52:11.508Z,97118.36
2019-06-07T09:02:22.864Z,97104.16
2019-06-07T09:12:11.798Z,97097.79
2019-06-07T09:22:13.084Z,97063.41
2019-06-07T09:32:18.023Z,97051.85
2019-06-07T09:42:17.413Z,97033.45
2019-06-07T09:52:18.921Z,97018.30
2019-06-07T10:02:20.345Z,97006.72
2019-06-07T10:12:21.379Z,97005.55
2019-06-07T10:22:23.449Z,96988.48
2019-06-07T10:32:24.704Z,96977.47
2019-06-07T10:42:25.844Z,96989.47
2019-06-07T10:52:27.006Z,96967.95
2019-06-07T11:02:28.389Z,96968.20
2019-06-07T11:12:29.753Z,96964.11
2019-06-07T11:22:31.141Z,96956.88
2019-06-07T11:32:32.977Z,96962.74
2019-06-07T11:42:34.114Z,96959.02
2019-06-07T11:52:35.255Z,96959.21
2019-06-07T12:02:36.511Z,96944.64
2019-06-07T12:12:37.802Z,96926.45
2019-06-07T12:22:38.887Z,96924.27
2019-06-07T12:32:39.924Z,96891.58
2019-06-07T12:42:41.051Z,96890.20
2019-06-07T12:52:42.223Z,96862.97
2019-06-07T13:02:43.358Z,96853.53
2019-06-07T13:12:45.292Z,96845.30
2019-06-07T13:22:46.459Z,96832.75
2019-06-07T13:32:47.650Z,96828.17
2019-06-07T13:42:48.679Z,96828.28
2019-06-07T13:52:49.723Z,96815.27
2019-06-07T14:02:51.990Z,96814.02
2019-06-07T14:12:53.016Z,96798.23
2019-06-07T14:22:54.760Z,96794.91
2019-06-07T14:32:55.876Z,96791.64
2019-06-07T14:42:57.000Z,96779.75
2019-06-07T14:52:59.405Z,96777.19
2019-06-07T15:03:00.770Z,96759.59
2019-06-07T15:13:02.107Z,96750.62
2019-06-07T15:23:05.379Z,96736.33
2019-06-07T15:33:06.573Z,96732.08
2019-06-07T15:43:07.684Z,96713.33
2019-06-07T15:53:08.859Z,96696.98
2019-06-07T16:03:10.345Z,96682.95
2019-06-07T16:13:11.402Z,96681.17
2019-06-07T16:23:13.618Z,96685.15
2019-06-07T16:33:14.728Z,96682.52
2019-06-07T16:43:17.806Z,96677.17
2019-06-07T16:53:18.840Z,96685.03
2019-06-07T17:03:19.914Z,96693.42
2019-06-07T17:13:33.105Z,96700.00
2019-06-07T17:23:24.565Z,96704.08
2019-06-07T17:33:26.829Z,96708.72
2019-06-07T17:43:27.961Z,96700.31
2019-06-07T17:53:30.607Z,96689.92
2019-06-07T18:03:32.053Z,96687.64
2019-06-07T18:13:33.166Z,96694.00
2019-06-07T18:23:34.325Z,96711.96
2019-06-07T18:33:35.538Z,96712.22
2019-06-07T18:43:36.553Z,96720.27
2019-06-07T18:53:37.793Z,96736.74
2019-06-07T19:03:38.861Z,96769.02
2019-06-07T19:13:41.231Z,96799.65
2019-06-07T19:23:42.381Z,96813.89
2019-06-07T19:33:49.144Z,96845.06
2019-06-07T19:43:46.556Z,96860.95
2019-06-07T19:53:47.860Z,96889.08
2019-06-07T20:03:49.658Z,96904.63
2019-06-07T20:13:50.824Z,96912.07
2019-06-07T20:23:53.005Z,96931.08
2019-06-07T20:33:56.324Z,97037.84
2019-06-07T20:43:57.717Z,97076.27
2019-06-07T20:54:00.285Z,97149.15
2019-06-07T21:04:01.479Z,97209.30
2019-06-07T21:14:04.056Z,97276.15
2019-06-07T21:24:06.691Z,97313.38
2019-06-07T21:34:11.974Z,97359.22
2019-06-07T21:44:10.764Z,97478.22
2019-06-07T21:54:14.747Z,97478.22
2019-06-07T22:04:14.955Z,97535.77
2019-06-07T22:14:16.099Z,97535.77
2019-06-07T22:24:17.253Z,97588.24
2019-06-07T22:34:19.238Z,97619.11
2019-06-07T22:44:20.409Z,97630.57
2019-06-07T22:54:21.471Z,97659.28
2019-06-07T23:04:22.833Z,97659.28
2019-06-07T23:14:25.729Z,97669.16
2019-06-07T23:24:27.095Z,97690.44
2019-06-07T23:34:28.147Z,97707.20
2019-06-07T23:44:29.231Z,97723.33
2019-06-07T23:54:30.387Z,97729.35
